sensor_id;sensor_type;location;lat;lon;timestamp;P1;durP1;ratioP1;P2;durP2;ratioP2
6840;SDS011;3458;53.678;14.080;2022-08-01T00:00:12;2.83;;;1.87;;
6840;SDS011;3458;53.678;14.080;2022-08-01T00:02:39;5.83;;;2.10;;
6840;SDS011;3458;53.678;14.080;2022-08-01T00:05:05;3.37;;;2.43;;
6840;SDS011;3458;53.678;14.080;2022-08-01T00:07:33;2.40;;;2.20;;
6840;SDS011;3458;53.678;14.080;2022-08-01T00:09:58;4.03;;;2.10;;
6840;SDS011;3458;53.678;14.080;2022-08-01T00:12:24;9.90;;;2.50;;
6840;SDS011;3458;53.678;14.080;2022-08-01T00:14:49;2.10;;;1.90;;
6840;SDS011;3458;53.678;14.080;2022-08-01T00:17:15;2.90;;;2.27;;
6840;SDS011;3458;53.678;14.080;2022-08-01T00:19:41;5.33;;;2.23;;
6840;SDS011;3458;53.678;14.080;2022-08-01T00:22:06;2.93;;;1.73;;
6840;SDS011;3458;53.678;14.080;2022-08-01T00:24:32;2.20;;;2.00;;
6840;SDS011;3458;53.678;14.080;2022-08-01T00:26:58;5.20;;;2.10;;
6840;SDS011;3458;53.678;14.080;2022-08-01T00:29:23;2.33;;;1.90;;
6840;SDS011;3458;53.678;14.080;2022-08-01T00:31:49;2.60;;;2.40;;
6840;SDS011;3458;53.678;14.080;2022-08-01T00:34:14;5.07;;;2.03;;
6840;SDS011;3458;53.678;14.080;2022-08-01T00:36:40;2.13;;;1.87;;
6840;SDS011;3458;53.678;14.080;2022-08-01T00:39:05;5.30;;;1.90;;
6840;SDS011;3458;53.678;14.080;2022-08-01T00:41:31;8.73;;;2.57;;
6840;SDS011;3458;53.678;14.080;2022-08-01T00:43:56;3.47;;;2.20;;
6840;SDS011;3458;53.678;14.080;2022-08-01T00:46:22;3.10;;;1.90;;
6840;SDS011;3458;53.678;14.080;2022-08-01T00:48:48;4.93;;;2.07;;
6840;SDS011;3458;53.678;14.080;2022-08-01T00:51:13;3.37;;;2.20;;
6840;SDS011;3458;53.678;14.080;2022-08-01T00:53:40;3.83;;;2.37;;
6840;SDS011;3458;53.678;14.080;2022-08-01T00:56:05;4.67;;;2.53;;
6840;SDS011;3458;53.678;14.080;2022-08-01T00:58:32;3.43;;;2.83;;
6840;SDS011;3458;53.678;14.080;2022-08-01T01:00:58;3.00;;;1.83;;
6840;SDS011;3458;53.678;14.080;2022-08-01T01:03:24;2.87;;;2.10;;
6840;SDS011;3458;53.678;14.080;2022-08-01T01:06:05;4.07;;;2.57;;
6840;SDS011;3458;53.678;14.080;2022-08-01T01:08:42;3.73;;;2.33;;
6840;SDS011;3458;53.678;14.080;2022-08-01T01:11:14;4.60;;;2.33;;
6840;SDS011;3458;53.678;14.080;2022-08-01T01:13:49;4.50;;;2.33;;
6840;SDS011;3458;53.678;14.080;2022-08-01T01:16:19;13.23;;;2.80;;
6840;SDS011;3458;53.678;14.080;2022-08-01T01:18:47;3.13;;;2.33;;
6840;SDS011;3458;53.678;14.080;2022-08-01T01:23:57;2.10;;;1.90;;
6840;SDS011;3458;53.678;14.080;2022-08-01T01:27:02;3.83;;;2.47;;
6840;SDS011;3458;53.678;14.080;2022-08-01T01:29:50;3.40;;;2.20;;
6840;SDS011;3458;53.678;14.080;2022-08-01T01:35:19;2.23;;;2.03;;
6840;SDS011;3458;53.678;14.080;2022-08-01T01:37:49;3.83;;;2.40;;
6840;SDS011;3458;53.678;14.080;2022-08-01T01:40:19;9.03;;;2.43;;
6840;SDS011;3458;53.678;14.080;2022-08-01T01:42:46;4.00;;;2.77;;
6840;SDS011;3458;53.678;14.080;2022-08-01T01:45:13;4.90;;;2.63;;
6840;SDS011;3458;53.678;14.080;2022-08-01T01:47:40;3.20;;;2.13;;
6840;SDS011;3458;53.678;14.080;2022-08-01T01:50:07;8.03;;;2.50;;
6840;SDS011;3458;53.678;14.080;2022-08-01T01:52:35;2.63;;;2.10;;
6840;SDS011;3458;53.678;14.080;2022-08-01T01:55:04;2.20;;;2.03;;
6840;SDS011;3458;53.678;14.080;2022-08-01T01:57:32;2.43;;;2.23;;
6840;SDS011;3458;53.678;14.080;2022-08-01T02:00:02;2.63;;;2.40;;
6840;SDS011;3458;53.678;14.080;2022-08-01T02:02:30;10.23;;;2.60;;
6840;SDS011;3458;53.678;14.080;2022-08-01T02:04:56;5.27;;;2.50;;
6840;SDS011;3458;53.678;14.080;2022-08-01T02:07:24;3.23;;;2.73;;
6840;SDS011;3458;53.678;14.080;2022-08-01T02:09:50;3.10;;;2.10;;
6840;SDS011;3458;53.678;14.080;2022-08-01T02:12:18;3.03;;;2.53;;
6840;SDS011;3458;53.678;14.080;2022-08-01T02:14:46;4.93;;;2.83;;
6840;SDS011;3458;53.678;14.080;2022-08-01T02:17:15;4.63;;;2.80;;
6840;SDS011;3458;53.678;14.080;2022-08-01T02:19:43;5.30;;;2.43;;
6840;SDS011;3458;53.678;14.080;2022-08-01T02:22:10;5.50;;;2.80;;
6840;SDS011;3458;53.678;14.080;2022-08-01T02:24:48;4.63;;;2.50;;
6840;SDS011;3458;53.678;14.080;2022-08-01T02:27:17;5.73;;;2.83;;
6840;SDS011;3458;53.678;14.080;2022-08-01T02:29:55;4.80;;;3.00;;
6840;SDS011;3458;53.678;14.080;2022-08-01T02:32:28;4.90;;;2.30;;
6840;SDS011;3458;53.678;14.080;2022-08-01T02:34:57;4.50;;;2.57;;
6840;SDS011;3458;53.678;14.080;2022-08-01T02:37:25;4.57;;;2.50;;
6840;SDS011;3458;53.678;14.080;2022-08-01T02:39:54;4.83;;;2.77;;
6840;SDS011;3458;53.678;14.080;2022-08-01T02:42:19;4.50;;;2.60;;
6840;SDS011;3458;53.678;14.080;2022-08-01T02:44:49;5.03;;;2.53;;
6840;SDS011;3458;53.678;14.080;2022-08-01T02:47:16;9.50;;;2.20;;
6840;SDS011;3458;53.678;14.080;2022-08-01T02:49:45;3.70;;;2.20;;
6840;SDS011;3458;53.678;14.080;2022-08-01T02:52:14;6.03;;;3.87;;
6840;SDS011;3458;53.678;14.080;2022-08-01T02:54:41;4.17;;;3.00;;
6840;SDS011;3458;53.678;14.080;2022-08-01T02:57:09;4.53;;;2.80;;
6840;SDS011;3458;53.678;14.080;2022-08-01T02:59:37;4.20;;;2.77;;
6840;SDS011;3458;53.678;14.080;2022-08-01T03:02:05;7.03;;;3.20;;
6840;SDS011;3458;53.678;14.080;2022-08-01T03:04:35;7.33;;;3.73;;
6840;SDS011;3458;53.678;14.080;2022-08-01T03:07:04;4.07;;;2.83;;
6840;SDS011;3458;53.678;14.080;2022-08-01T03:09:33;5.20;;;3.87;;
6840;SDS011;3458;53.678;14.080;2022-08-01T03:12:02;2.83;;;2.43;;
6840;SDS011;3458;53.678;14.080;2022-08-01T03:14:32;3.73;;;3.00;;
6840;SDS011;3458;53.678;14.080;2022-08-01T03:17:01;4.83;;;3.10;;
6840;SDS011;3458;53.678;14.080;2022-08-01T03:19:27;7.07;;;3.40;;
6840;SDS011;3458;53.678;14.080;2022-08-01T03:21:56;4.93;;;2.90;;
6840;SDS011;3458;53.678;14.080;2022-08-01T03:24:28;12.37;;;3.23;;
6840;SDS011;3458;53.678;14.080;2022-08-01T03:26:54;6.00;;;2.80;;
6840;SDS011;3458;53.678;14.080;2022-08-01T03:29:24;7.77;;;3.23;;
6840;SDS011;3458;53.678;14.080;2022-08-01T03:31:52;9.30;;;3.57;;
6840;SDS011;3458;53.678;14.080;2022-08-01T03:34:18;11.20;;;2.60;;
6840;SDS011;3458;53.678;14.080;2022-08-01T03:36:47;3.40;;;2.63;;
6840;SDS011;3458;53.678;14.080;2022-08-01T03:39:33;5.73;;;2.73;;
6840;SDS011;3458;53.678;14.080;2022-08-01T03:42:07;8.93;;;3.13;;
6840;SDS011;3458;53.678;14.080;2022-08-01T03:44:38;3.27;;;2.80;;
6840;SDS011;3458;53.678;14.080;2022-08-01T03:47:06;4.10;;;3.03;;
6840;SDS011;3458;53.678;14.080;2022-08-01T03:49:35;3.67;;;3.20;;
6840;SDS011;3458;53.678;14.080;2022-08-01T03:52:09;3.73;;;2.90;;
6840;SDS011;3458;53.678;14.080;2022-08-01T03:54:36;6.13;;;2.60;;
6840;SDS011;3458;53.678;14.080;2022-08-01T03:57:05;5.47;;;2.50;;
6840;SDS011;3458;53.678;14.080;2022-08-01T03:59:31;5.50;;;2.90;;
6840;SDS011;3458;53.678;14.080;2022-08-01T04:01:59;5.43;;;3.10;;
6840;SDS011;3458;53.678;14.080;2022-08-01T04:04:25;8.20;;;5.10;;
6840;SDS011;3458;53.678;14.080;2022-08-01T04:06:50;10.90;;;7.37;;
6840;SDS011;3458;53.678;14.080;2022-08-01T04:09:19;4.97;;;3.47;;
6840;SDS011;3458;53.678;14.080;2022-08-01T04:11:45;6.03;;;2.53;;
6840;SDS011;3458;53.678;14.080;2022-08-01T04:14:10;7.90;;;2.50;;
6840;SDS011;3458;53.678;14.080;2022-08-01T04:16:36;6.43;;;2.70;;
6840;SDS011;3458;53.678;14.080;2022-08-01T04:19:02;4.20;;;2.70;;
6840;SDS011;3458;53.678;14.080;2022-08-01T04:21:29;4.50;;;2.77;;
6840;SDS011;3458;53.678;14.080;2022-08-01T04:23:58;7.93;;;3.07;;
6840;SDS011;3458;53.678;14.080;2022-08-01T04:26:28;2.97;;;2.67;;
6840;SDS011;3458;53.678;14.080;2022-08-01T04:28:55;4.87;;;2.70;;
6840;SDS011;3458;53.678;14.080;2022-08-01T04:34:16;5.70;;;2.60;;
6840;SDS011;3458;53.678;14.080;2022-08-01T04:36:45;3.40;;;2.70;;
6840;SDS011;3458;53.678;14.080;2022-08-01T04:39:12;3.10;;;2.80;;
6840;SDS011;3458;53.678;14.080;2022-08-01T04:41:40;4.77;;;3.10;;
6840;SDS011;3458;53.678;14.080;2022-08-01T04:44:06;3.23;;;2.90;;
6840;SDS011;3458;53.678;14.080;2022-08-01T04:46:32;3.70;;;2.87;;
6840;SDS011;3458;53.678;14.080;2022-08-01T04:48:59;5.97;;;4.50;;
6840;SDS011;3458;53.678;14.080;2022-08-01T04:51:25;4.57;;;3.57;;
6840;SDS011;3458;53.678;14.080;2022-08-01T04:53:51;4.13;;;3.73;;
6840;SDS011;3458;53.678;14.080;2022-08-01T04:56:17;4.97;;;3.20;;
6840;SDS011;3458;53.678;14.080;2022-08-01T04:58:43;8.63;;;3.50;;
6840;SDS011;3458;53.678;14.080;2022-08-01T05:01:10;7.83;;;2.83;;
6840;SDS011;3458;53.678;14.080;2022-08-01T05:03:35;6.90;;;3.10;;
6840;SDS011;3458;53.678;14.080;2022-08-01T05:06:01;2.83;;;2.60;;
6840;SDS011;3458;53.678;14.080;2022-08-01T05:08:27;2.87;;;2.50;;
6840;SDS011;3458;53.678;14.080;2022-08-01T05:10:53;8.10;;;3.30;;
6840;SDS011;3458;53.678;14.080;2022-08-01T05:13:19;2.97;;;2.77;;
6840;SDS011;3458;53.678;14.080;2022-08-01T05:15:44;2.97;;;2.67;;
6840;SDS011;3458;53.678;14.080;2022-08-01T05:18:10;11.27;;;6.30;;
6840;SDS011;3458;53.678;14.080;2022-08-01T05:20:36;5.63;;;2.60;;
6840;SDS011;3458;53.678;14.080;2022-08-01T05:23:02;4.73;;;3.27;;
6840;SDS011;3458;53.678;14.080;2022-08-01T05:25:29;4.07;;;3.13;;
6840;SDS011;3458;53.678;14.080;2022-08-01T05:27:54;5.13;;;3.00;;
6840;SDS011;3458;53.678;14.080;2022-08-01T05:30:20;6.63;;;3.43;;
6840;SDS011;3458;53.678;14.080;2022-08-01T05:32:45;3.20;;;2.90;;
6840;SDS011;3458;53.678;14.080;2022-08-01T05:35:11;5.03;;;3.60;;
6840;SDS011;3458;53.678;14.080;2022-08-01T05:37:36;3.93;;;2.73;;
6840;SDS011;3458;53.678;14.080;2022-08-01T05:40:02;5.33;;;3.37;;
6840;SDS011;3458;53.678;14.080;2022-08-01T05:42:28;3.83;;;3.30;;
6840;SDS011;3458;53.678;14.080;2022-08-01T05:44:54;4.20;;;3.23;;
6840;SDS011;3458;53.678;14.080;2022-08-01T05:47:19;4.90;;;2.97;;
6840;SDS011;3458;53.678;14.080;2022-08-01T05:49:45;5.07;;;3.37;;
6840;SDS011;3458;53.678;14.080;2022-08-01T05:52:10;6.20;;;3.00;;
6840;SDS011;3458;53.678;14.080;2022-08-01T05:54:36;7.53;;;2.97;;
6840;SDS011;3458;53.678;14.080;2022-08-01T05:57:02;6.30;;;2.80;;
6840;SDS011;3458;53.678;14.080;2022-08-01T05:59:28;5.83;;;2.83;;
6840;SDS011;3458;53.678;14.080;2022-08-01T06:01:57;8.40;;;2.87;;
6840;SDS011;3458;53.678;14.080;2022-08-01T06:04:23;3.43;;;2.70;;
6840;SDS011;3458;53.678;14.080;2022-08-01T06:06:48;5.93;;;3.10;;
6840;SDS011;3458;53.678;14.080;2022-08-01T06:09:14;3.77;;;3.03;;
6840;SDS011;3458;53.678;14.080;2022-08-01T06:11:40;5.03;;;3.00;;
6840;SDS011;3458;53.678;14.080;2022-08-01T06:14:05;10.00;;;2.90;;
6840;SDS011;3458;53.678;14.080;2022-08-01T06:16:31;9.90;;;3.20;;
6840;SDS011;3458;53.678;14.080;2022-08-01T06:18:57;4.90;;;2.50;;
6840;SDS011;3458;53.678;14.080;2022-08-01T06:21:22;6.50;;;3.60;;
6840;SDS011;3458;53.678;14.080;2022-08-01T06:23:48;4.93;;;3.10;;
6840;SDS011;3458;53.678;14.080;2022-08-01T06:26:13;8.17;;;3.07;;
6840;SDS011;3458;53.678;14.080;2022-08-01T06:28:41;3.90;;;3.13;;
6840;SDS011;3458;53.678;14.080;2022-08-01T06:31:07;4.93;;;2.43;;
6840;SDS011;3458;53.678;14.080;2022-08-01T06:33:34;5.17;;;2.60;;
6840;SDS011;3458;53.678;14.080;2022-08-01T06:36:00;4.23;;;2.50;;
6840;SDS011;3458;53.678;14.080;2022-08-01T06:38:25;4.57;;;3.20;;
6840;SDS011;3458;53.678;14.080;2022-08-01T06:40:51;7.83;;;3.20;;
6840;SDS011;3458;53.678;14.080;2022-08-01T06:43:17;2.93;;;2.33;;
6840;SDS011;3458;53.678;14.080;2022-08-01T06:45:43;7.43;;;2.83;;
6840;SDS011;3458;53.678;14.080;2022-08-01T06:48:09;3.60;;;3.30;;
6840;SDS011;3458;53.678;14.080;2022-08-01T06:50:34;10.50;;;3.20;;
6840;SDS011;3458;53.678;14.080;2022-08-01T06:53:01;3.47;;;2.47;;
6840;SDS011;3458;53.678;14.080;2022-08-01T06:55:27;5.07;;;2.93;;
6840;SDS011;3458;53.678;14.080;2022-08-01T06:57:53;4.90;;;2.50;;
6840;SDS011;3458;53.678;14.080;2022-08-01T07:00:19;3.10;;;2.80;;
6840;SDS011;3458;53.678;14.080;2022-08-01T07:02:48;5.50;;;3.80;;
6840;SDS011;3458;53.678;14.080;2022-08-01T07:05:18;7.50;;;4.50;;
6840;SDS011;3458;53.678;14.080;2022-08-01T07:07:44;4.67;;;3.60;;
6840;SDS011;3458;53.678;14.080;2022-08-01T07:10:10;7.17;;;3.13;;
6840;SDS011;3458;53.678;14.080;2022-08-01T07:12:36;4.40;;;3.00;;
6840;SDS011;3458;53.678;14.080;2022-08-01T07:15:06;6.47;;;2.90;;
6840;SDS011;3458;53.678;14.080;2022-08-01T07:17:36;4.53;;;3.17;;
6840;SDS011;3458;53.678;14.080;2022-08-01T07:20:03;5.70;;;2.90;;
6840;SDS011;3458;53.678;14.080;2022-08-01T07:22:29;6.30;;;3.17;;
6840;SDS011;3458;53.678;14.080;2022-08-01T07:24:55;3.70;;;2.47;;
6840;SDS011;3458;53.678;14.080;2022-08-01T07:27:20;3.27;;;2.73;;
6840;SDS011;3458;53.678;14.080;2022-08-01T07:29:46;5.07;;;3.27;;
6840;SDS011;3458;53.678;14.080;2022-08-01T07:32:11;4.50;;;3.77;;
6840;SDS011;3458;53.678;14.080;2022-08-01T07:34:37;2.73;;;2.53;;
6840;SDS011;3458;53.678;14.080;2022-08-01T07:37:02;3.10;;;2.80;;
6840;SDS011;3458;53.678;14.080;2022-08-01T07:39:28;5.23;;;2.83;;
6840;SDS011;3458;53.678;14.080;2022-08-01T07:41:54;3.07;;;2.57;;
6840;SDS011;3458;53.678;14.080;2022-08-01T07:44:19;5.13;;;3.17;;
6840;SDS011;3458;53.678;14.080;2022-08-01T07:46:45;10.03;;;3.10;;
6840;SDS011;3458;53.678;14.080;2022-08-01T07:49:10;3.90;;;2.70;;
6840;SDS011;3458;53.678;14.080;2022-08-01T07:51:36;4.77;;;3.10;;
6840;SDS011;3458;53.678;14.080;2022-08-01T07:54:01;3.60;;;2.90;;
6840;SDS011;3458;53.678;14.080;2022-08-01T07:56:27;3.63;;;2.37;;
6840;SDS011;3458;53.678;14.080;2022-08-01T07:58:52;6.37;;;2.90;;
6840;SDS011;3458;53.678;14.080;2022-08-01T08:01:18;3.93;;;2.73;;
6840;SDS011;3458;53.678;14.080;2022-08-01T08:03:44;2.93;;;2.40;;
6840;SDS011;3458;53.678;14.080;2022-08-01T08:06:10;5.33;;;3.20;;
6840;SDS011;3458;53.678;14.080;2022-08-01T08:08:35;5.50;;;3.40;;
6840;SDS011;3458;53.678;14.080;2022-08-01T08:11:01;7.63;;;2.87;;
6840;SDS011;3458;53.678;14.080;2022-08-01T08:13:26;8.70;;;3.33;;
6840;SDS011;3458;53.678;14.080;2022-08-01T08:15:52;2.83;;;2.57;;
6840;SDS011;3458;53.678;14.080;2022-08-01T08:18:18;3.30;;;2.70;;
6840;SDS011;3458;53.678;14.080;2022-08-01T08:20:44;7.67;;;3.90;;
6840;SDS011;3458;53.678;14.080;2022-08-01T08:23:10;5.87;;;3.40;;
6840;SDS011;3458;53.678;14.080;2022-08-01T08:25:54;9.00;;;3.20;;
6840;SDS011;3458;53.678;14.080;2022-08-01T08:28:20;2.40;;;2.20;;
6840;SDS011;3458;53.678;14.080;2022-08-01T08:30:48;3.63;;;3.10;;
6840;SDS011;3458;53.678;14.080;2022-08-01T08:33:13;3.50;;;2.90;;
6840;SDS011;3458;53.678;14.080;2022-08-01T08:35:39;7.23;;;3.30;;
6840;SDS011;3458;53.678;14.080;2022-08-01T08:38:06;5.67;;;3.33;;
6840;SDS011;3458;53.678;14.080;2022-08-01T08:40:32;6.20;;;3.33;;
6840;SDS011;3458;53.678;14.080;2022-08-01T08:43:00;6.77;;;4.30;;
6840;SDS011;3458;53.678;14.080;2022-08-01T08:45:28;5.13;;;3.97;;
6840;SDS011;3458;53.678;14.080;2022-08-01T08:47:55;6.07;;;4.70;;
6840;SDS011;3458;53.678;14.080;2022-08-01T08:50:21;4.30;;;3.23;;
6840;SDS011;3458;53.678;14.080;2022-08-01T08:52:47;7.43;;;3.33;;
6840;SDS011;3458;53.678;14.080;2022-08-01T08:55:14;4.43;;;3.30;;
6840;SDS011;3458;53.678;14.080;2022-08-01T08:57:42;7.43;;;2.93;;
6840;SDS011;3458;53.678;14.080;2022-08-01T09:00:09;4.50;;;3.30;;
6840;SDS011;3458;53.678;14.080;2022-08-01T09:02:39;7.83;;;3.37;;
6840;SDS011;3458;53.678;14.080;2022-08-01T09:05:09;3.67;;;2.40;;
6840;SDS011;3458;53.678;14.080;2022-08-01T09:07:35;2.67;;;2.47;;
6840;SDS011;3458;53.678;14.080;2022-08-01T09:10:00;3.70;;;2.87;;
6840;SDS011;3458;53.678;14.080;2022-08-01T09:12:26;3.07;;;2.77;;
6840;SDS011;3458;53.678;14.080;2022-08-01T09:14:51;5.60;;;3.00;;
6840;SDS011;3458;53.678;14.080;2022-08-01T09:17:18;6.53;;;3.47;;
6840;SDS011;3458;53.678;14.080;2022-08-01T09:19:46;4.50;;;3.63;;
6840;SDS011;3458;53.678;14.080;2022-08-01T09:22:16;2.93;;;2.47;;
6840;SDS011;3458;53.678;14.080;2022-08-01T09:24:59;5.40;;;3.03;;
6840;SDS011;3458;53.678;14.080;2022-08-01T09:27:26;4.37;;;2.40;;
6840;SDS011;3458;53.678;14.080;2022-08-01T09:29:55;3.57;;;2.77;;
6840;SDS011;3458;53.678;14.080;2022-08-01T09:32:36;3.60;;;2.67;;
6840;SDS011;3458;53.678;14.080;2022-08-01T09:35:27;5.00;;;2.80;;
6840;SDS011;3458;53.678;14.080;2022-08-01T09:38:11;7.10;;;2.93;;
6840;SDS011;3458;53.678;14.080;2022-08-01T09:40:46;7.10;;;2.33;;
6840;SDS011;3458;53.678;14.080;2022-08-01T09:43:23;3.50;;;2.80;;
6840;SDS011;3458;53.678;14.080;2022-08-01T09:45:51;3.03;;;2.60;;
6840;SDS011;3458;53.678;14.080;2022-08-01T09:48:18;8.00;;;5.47;;
6840;SDS011;3458;53.678;14.080;2022-08-01T09:50:45;7.23;;;6.53;;
6840;SDS011;3458;53.678;14.080;2022-08-01T09:53:12;8.77;;;4.90;;
6840;SDS011;3458;53.678;14.080;2022-08-01T09:55:39;4.60;;;3.10;;
6840;SDS011;3458;53.678;14.080;2022-08-01T09:58:06;5.70;;;3.00;;
6840;SDS011;3458;53.678;14.080;2022-08-01T10:00:33;7.07;;;3.30;;
6840;SDS011;3458;53.678;14.080;2022-08-01T10:03:01;5.17;;;3.83;;
6840;SDS011;3458;53.678;14.080;2022-08-01T10:05:44;7.53;;;3.50;;
6840;SDS011;3458;53.678;14.080;2022-08-01T10:08:13;3.10;;;2.80;;
6840;SDS011;3458;53.678;14.080;2022-08-01T10:10:39;5.07;;;3.30;;
6840;SDS011;3458;53.678;14.080;2022-08-01T10:13:05;6.30;;;2.70;;
6840;SDS011;3458;53.678;14.080;2022-08-01T10:15:31;6.27;;;3.23;;
6840;SDS011;3458;53.678;14.080;2022-08-01T10:17:58;5.37;;;3.60;;
6840;SDS011;3458;53.678;14.080;2022-08-01T10:20:27;3.17;;;2.97;;
6840;SDS011;3458;53.678;14.080;2022-08-01T10:22:54;4.40;;;3.23;;
6840;SDS011;3458;53.678;14.080;2022-08-01T10:25:23;10.57;;;7.40;;
6840;SDS011;3458;53.678;14.080;2022-08-01T10:27:52;11.80;;;4.80;;
6840;SDS011;3458;53.678;14.080;2022-08-01T10:30:20;8.70;;;5.23;;
6840;SDS011;3458;53.678;14.080;2022-08-01T10:32:46;9.10;;;4.67;;
6840;SDS011;3458;53.678;14.080;2022-08-01T10:35:12;5.20;;;3.97;;
6840;SDS011;3458;53.678;14.080;2022-08-01T10:37:42;4.33;;;3.93;;
6840;SDS011;3458;53.678;14.080;2022-08-01T10:40:12;4.40;;;2.90;;
6840;SDS011;3458;53.678;14.080;2022-08-01T10:42:39;4.50;;;4.10;;
6840;SDS011;3458;53.678;14.080;2022-08-01T10:45:07;4.93;;;3.53;;
6840;SDS011;3458;53.678;14.080;2022-08-01T10:48:20;6.40;;;3.43;;
6840;SDS011;3458;53.678;14.080;2022-08-01T10:50:44;5.33;;;3.83;;
6840;SDS011;3458;53.678;14.080;2022-08-01T10:53:15;3.53;;;3.23;;
6840;SDS011;3458;53.678;14.080;2022-08-01T10:58:22;7.93;;;3.90;;
6840;SDS011;3458;53.678;14.080;2022-08-01T11:06:25;4.73;;;3.43;;
6840;SDS011;3458;53.678;14.080;2022-08-01T11:08:58;5.20;;;4.40;;
6840;SDS011;3458;53.678;14.080;2022-08-01T11:14:33;7.83;;;6.30;;
6840;SDS011;3458;53.678;14.080;2022-08-01T11:17:29;13.27;;;6.40;;
6840;SDS011;3458;53.678;14.080;2022-08-01T11:20:03;9.53;;;5.80;;
6840;SDS011;3458;53.678;14.080;2022-08-01T11:33:08;7.90;;;3.73;;
6840;SDS011;3458;53.678;14.080;2022-08-01T11:35:35;3.07;;;2.83;;
6840;SDS011;3458;53.678;14.080;2022-08-01T11:41:09;2.70;;;2.40;;
6840;SDS011;3458;53.678;14.080;2022-08-01T11:43:34;2.97;;;2.77;;
6840;SDS011;3458;53.678;14.080;2022-08-01T11:46:00;3.93;;;2.70;;
6840;SDS011;3458;53.678;14.080;2022-08-01T11:48:27;3.40;;;2.83;;
6840;SDS011;3458;53.678;14.080;2022-08-01T11:50:56;3.80;;;2.90;;
6840;SDS011;3458;53.678;14.080;2022-08-01T11:53:22;3.00;;;2.80;;
6840;SDS011;3458;53.678;14.080;2022-08-01T11:55:49;3.17;;;2.93;;
6840;SDS011;3458;53.678;14.080;2022-08-01T11:58:19;9.37;;;7.90;;
6840;SDS011;3458;53.678;14.080;2022-08-01T12:00:50;4.60;;;4.10;;
6840;SDS011;3458;53.678;14.080;2022-08-01T12:03:20;3.83;;;2.90;;
6840;SDS011;3458;53.678;14.080;2022-08-01T12:05:52;5.40;;;4.40;;
6840;SDS011;3458;53.678;14.080;2022-08-01T12:08:25;4.00;;;3.30;;
6840;SDS011;3458;53.678;14.080;2022-08-01T12:10:52;3.70;;;2.73;;
6840;SDS011;3458;53.678;14.080;2022-08-01T12:13:18;4.13;;;3.20;;
6840;SDS011;3458;53.678;14.080;2022-08-01T12:15:44;3.10;;;2.90;;
6840;SDS011;3458;53.678;14.080;2022-08-01T12:18:11;4.23;;;2.80;;
6840;SDS011;3458;53.678;14.080;2022-08-01T12:20:38;3.33;;;3.03;;
6840;SDS011;3458;53.678;14.080;2022-08-01T12:23:06;2.57;;;2.37;;
6840;SDS011;3458;53.678;14.080;2022-08-01T12:25:34;2.70;;;2.50;;
6840;SDS011;3458;53.678;14.080;2022-08-01T12:28:01;2.13;;;2.03;;
6840;SDS011;3458;53.678;14.080;2022-08-01T12:30:29;2.63;;;2.40;;
6840;SDS011;3458;53.678;14.080;2022-08-01T12:32:56;1.90;;;1.80;;
6840;SDS011;3458;53.678;14.080;2022-08-01T12:35:26;2.40;;;2.20;;
6840;SDS011;3458;53.678;14.080;2022-08-01T12:37:54;3.30;;;2.57;;
6840;SDS011;3458;53.678;14.080;2022-08-01T12:40:26;3.73;;;2.67;;
6840;SDS011;3458;53.678;14.080;2022-08-01T12:42:54;4.00;;;3.30;;
6840;SDS011;3458;53.678;14.080;2022-08-01T12:45:21;7.00;;;3.20;;
6840;SDS011;3458;53.678;14.080;2022-08-01T12:47:50;5.50;;;3.83;;
6840;SDS011;3458;53.678;14.080;2022-08-01T12:50:18;4.50;;;3.57;;
6840;SDS011;3458;53.678;14.080;2022-08-01T12:52:46;5.77;;;3.90;;
6840;SDS011;3458;53.678;14.080;2022-08-01T12:57:43;3.80;;;3.50;;
6840;SDS011;3458;53.678;14.080;2022-08-01T13:00:18;4.20;;;3.80;;
6840;SDS011;3458;53.678;14.080;2022-08-01T13:02:49;4.80;;;3.33;;
6840;SDS011;3458;53.678;14.080;2022-08-01T13:05:24;3.70;;;2.47;;
6840;SDS011;3458;53.678;14.080;2022-08-01T13:07:50;4.27;;;3.30;;
6840;SDS011;3458;53.678;14.080;2022-08-01T13:10:29;3.47;;;2.80;;
6840;SDS011;3458;53.678;14.080;2022-08-01T13:12:56;4.03;;;3.30;;
6840;SDS011;3458;53.678;14.080;2022-08-01T13:17:56;12.60;;;4.30;;
6840;SDS011;3458;53.678;14.080;2022-08-01T13:20:27;5.27;;;3.97;;
6840;SDS011;3458;53.678;14.080;2022-08-01T13:23:09;5.40;;;3.63;;
6840;SDS011;3458;53.678;14.080;2022-08-01T13:25:46;4.10;;;3.37;;
6840;SDS011;3458;53.678;14.080;2022-08-01T13:28:21;4.43;;;3.97;;
6840;SDS011;3458;53.678;14.080;2022-08-01T13:30:52;3.50;;;3.20;;
6840;SDS011;3458;53.678;14.080;2022-08-01T13:33:22;4.50;;;3.33;;
6840;SDS011;3458;53.678;14.080;2022-08-01T13:35:50;5.43;;;3.23;;
6840;SDS011;3458;53.678;14.080;2022-08-01T13:38:16;3.27;;;2.93;;
6840;SDS011;3458;53.678;14.080;2022-08-01T13:40:42;2.80;;;2.60;;
6840;SDS011;3458;53.678;14.080;2022-08-01T13:43:07;5.47;;;2.90;;
6840;SDS011;3458;53.678;14.080;2022-08-01T13:45:33;6.80;;;2.67;;
6840;SDS011;3458;53.678;14.080;2022-08-01T13:47:59;4.10;;;2.23;;
6840;SDS011;3458;53.678;14.080;2022-08-01T13:50:25;2.80;;;2.60;;
6840;SDS011;3458;53.678;14.080;2022-08-01T13:52:50;2.30;;;2.20;;
6840;SDS011;3458;53.678;14.080;2022-08-01T13:55:16;2.57;;;1.80;;
6840;SDS011;3458;53.678;14.080;2022-08-01T13:57:42;3.20;;;1.83;;
6840;SDS011;3458;53.678;14.080;2022-08-01T14:00:08;1.50;;;1.40;;
6840;SDS011;3458;53.678;14.080;2022-08-01T14:02:34;2.90;;;1.77;;
6840;SDS011;3458;53.678;14.080;2022-08-01T14:05:00;2.20;;;1.20;;
6840;SDS011;3458;53.678;14.080;2022-08-01T14:07:26;1.47;;;1.37;;
6840;SDS011;3458;53.678;14.080;2022-08-01T14:09:52;1.20;;;1.00;;
6840;SDS011;3458;53.678;14.080;2022-08-01T14:12:18;1.53;;;1.00;;
6840;SDS011;3458;53.678;14.080;2022-08-01T14:14:43;0.90;;;0.80;;
6840;SDS011;3458;53.678;14.080;2022-08-01T14:17:09;0.70;;;0.70;;
6840;SDS011;3458;53.678;14.080;2022-08-01T14:19:34;1.63;;;0.80;;
6840;SDS011;3458;53.678;14.080;2022-08-01T14:22:00;0.97;;;0.87;;
6840;SDS011;3458;53.678;14.080;2022-08-01T14:24:25;0.90;;;0.90;;
6840;SDS011;3458;53.678;14.080;2022-08-01T14:26:52;2.80;;;0.90;;
6840;SDS011;3458;53.678;14.080;2022-08-01T14:29:17;3.17;;;0.87;;
6840;SDS011;3458;53.678;14.080;2022-08-01T14:31:43;0.90;;;0.90;;
6840;SDS011;3458;53.678;14.080;2022-08-01T14:34:08;0.90;;;0.90;;
6840;SDS011;3458;53.678;14.080;2022-08-01T14:36:34;2.43;;;1.50;;
6840;SDS011;3458;53.678;14.080;2022-08-01T14:38:59;1.10;;;1.00;;
6840;SDS011;3458;53.678;14.080;2022-08-01T14:41:25;1.23;;;1.10;;
6840;SDS011;3458;53.678;14.080;2022-08-01T14:43:50;1.07;;;0.97;;
6840;SDS011;3458;53.678;14.080;2022-08-01T14:46:16;0.87;;;0.87;;
6840;SDS011;3458;53.678;14.080;2022-08-01T14:48:41;2.17;;;1.10;;
6840;SDS011;3458;53.678;14.080;2022-08-01T14:51:07;0.90;;;0.90;;
6840;SDS011;3458;53.678;14.080;2022-08-01T14:53:33;1.20;;;1.10;;
6840;SDS011;3458;53.678;14.080;2022-08-01T14:56:00;1.10;;;1.00;;
6840;SDS011;3458;53.678;14.080;2022-08-01T14:58:26;1.00;;;1.00;;
6840;SDS011;3458;53.678;14.080;2022-08-01T15:00:51;1.57;;;1.17;;
6840;SDS011;3458;53.678;14.080;2022-08-01T15:03:19;0.93;;;0.93;;
6840;SDS011;3458;53.678;14.080;2022-08-01T15:05:45;2.37;;;1.23;;
6840;SDS011;3458;53.678;14.080;2022-08-01T15:08:11;1.40;;;1.30;;
6840;SDS011;3458;53.678;14.080;2022-08-01T15:10:36;2.47;;;1.50;;
6840;SDS011;3458;53.678;14.080;2022-08-01T15:13:02;1.40;;;1.30;;
6840;SDS011;3458;53.678;14.080;2022-08-01T15:15:27;2.00;;;1.80;;
6840;SDS011;3458;53.678;14.080;2022-08-01T15:17:53;2.63;;;1.50;;
6840;SDS011;3458;53.678;14.080;2022-08-01T15:20:19;4.73;;;1.83;;
6840;SDS011;3458;53.678;14.080;2022-08-01T15:22:44;1.93;;;1.83;;
6840;SDS011;3458;53.678;14.080;2022-08-01T15:25:10;2.77;;;1.93;;
6840;SDS011;3458;53.678;14.080;2022-08-01T15:27:35;3.43;;;1.70;;
6840;SDS011;3458;53.678;14.080;2022-08-01T15:30:02;2.20;;;2.00;;
6840;SDS011;3458;53.678;14.080;2022-08-01T15:32:28;7.63;;;2.33;;
6840;SDS011;3458;53.678;14.080;2022-08-01T15:34:54;3.53;;;2.30;;
6840;SDS011;3458;53.678;14.080;2022-08-01T15:37:20;6.00;;;2.50;;
6840;SDS011;3458;53.678;14.080;2022-08-01T15:39:46;3.13;;;2.20;;
6840;SDS011;3458;53.678;14.080;2022-08-01T15:42:13;3.60;;;2.10;;